sensor_id;sensor_type;location;lat;lon;timestamp;P1;durP1;ratioP1;P2;durP2;ratioP2
18214;SDS011;9233;51.312;6.512;2022-10-16T00:01:41;3.53;;;1.57;;
18214;SDS011;9233;51.312;6.512;2022-10-16T00:04:28;5.77;;;1.57;;
18214;SDS011;9233;51.312;6.512;2022-10-16T00:07:14;3.63;;;1.40;;
18214;SDS011;9233;51.312;6.512;2022-10-16T00:10:02;4.73;;;1.40;;
18214;SDS011;9233;51.312;6.512;2022-10-16T00:12:49;6.80;;;1.50;;
18214;SDS011;9233;51.312;6.512;2022-10-16T00:15:36;1.50;;;1.30;;
18214;SDS011;9233;51.312;6.512;2022-10-16T00:18:24;2.37;;;1.40;;
18214;SDS011;9233;51.312;6.512;2022-10-16T00:21:11;3.17;;;1.50;;
18214;SDS011;9233;51.312;6.512;2022-10-16T00:23:59;3.60;;;1.80;;
18214;SDS011;9233;51.312;6.512;2022-10-16T00:26:50;3.97;;;1.50;;
18214;SDS011;9233;51.312;6.512;2022-10-16T00:29:36;2.10;;;0.90;;
18214;SDS011;9233;51.312;6.512;2022-10-16T00:32:23;1.93;;;1.10;;
18214;SDS011;9233;51.312;6.512;2022-10-16T00:35:10;2.97;;;1.07;;
18214;SDS011;9233;51.312;6.512;2022-10-16T00:37:56;5.03;;;1.10;;
18214;SDS011;9233;51.312;6.512;2022-10-16T00:40:43;2.47;;;1.40;;
18214;SDS011;9233;51.312;6.512;2022-10-16T00:43:35;2.30;;;1.13;;
18214;SDS011;9233;51.312;6.512;2022-10-16T00:46:24;1.37;;;1.00;;
18214;SDS011;9233;51.312;6.512;2022-10-16T00:49:13;2.50;;;1.30;;
18214;SDS011;9233;51.312;6.512;2022-10-16T00:52:01;2.43;;;1.03;;
18214;SDS011;9233;51.312;6.512;2022-10-16T00:54:48;3.53;;;1.30;;
18214;SDS011;9233;51.312;6.512;2022-10-16T00:57:36;2.73;;;1.40;;
18214;SDS011;9233;51.312;6.512;2022-10-16T01:00:26;1.73;;;1.30;;
18214;SDS011;9233;51.312;6.512;2022-10-16T01:03:23;2.60;;;0.90;;
18214;SDS011;9233;51.312;6.512;2022-10-16T01:06:18;1.00;;;0.80;;
18214;SDS011;9233;51.312;6.512;2022-10-16T01:09:11;1.70;;;1.20;;
18214;SDS011;9233;51.312;6.512;2022-10-16T01:12:03;2.50;;;1.17;;
18214;SDS011;9233;51.312;6.512;2022-10-16T01:14:53;1.73;;;0.93;;
18214;SDS011;9233;51.312;6.512;2022-10-16T01:17:43;3.17;;;0.97;;
18214;SDS011;9233;51.312;6.512;2022-10-16T01:20:33;1.43;;;0.80;;
18214;SDS011;9233;51.312;6.512;2022-10-16T01:23:27;2.13;;;0.90;;
18214;SDS011;9233;51.312;6.512;2022-10-16T01:26:23;2.03;;;1.00;;
18214;SDS011;9233;51.312;6.512;2022-10-16T01:29:20;1.17;;;1.00;;
18214;SDS011;9233;51.312;6.512;2022-10-16T01:32:10;3.30;;;1.13;;
18214;SDS011;9233;51.312;6.512;2022-10-16T01:35:00;1.40;;;1.00;;
18214;SDS011;9233;51.312;6.512;2022-10-16T01:37:50;3.07;;;1.00;;
18214;SDS011;9233;51.312;6.512;2022-10-16T01:40:41;3.50;;;0.90;;
18214;SDS011;9233;51.312;6.512;2022-10-16T01:43:33;1.50;;;0.70;;
18214;SDS011;9233;51.312;6.512;2022-10-16T01:46:23;1.43;;;0.90;;
18214;SDS011;9233;51.312;6.512;2022-10-16T01:49:10;1.53;;;0.90;;
18214;SDS011;9233;51.312;6.512;2022-10-16T01:51:59;1.13;;;0.93;;
18214;SDS011;9233;51.312;6.512;2022-10-16T01:54:47;1.10;;;0.73;;
18214;SDS011;9233;51.312;6.512;2022-10-16T01:57:35;1.73;;;0.80;;
18214;SDS011;9233;51.312;6.512;2022-10-16T02:00:23;0.97;;;0.70;;
18214;SDS011;9233;51.312;6.512;2022-10-16T02:03:13;2.77;;;0.70;;
18214;SDS011;9233;51.312;6.512;2022-10-16T02:06:01;1.53;;;0.70;;
18214;SDS011;9233;51.312;6.512;2022-10-16T02:08:48;2.90;;;0.63;;
18214;SDS011;9233;51.312;6.512;2022-10-16T02:11:34;2.97;;;0.60;;
18214;SDS011;9233;51.312;6.512;2022-10-16T02:14:21;1.47;;;1.17;;
18214;SDS011;9233;51.312;6.512;2022-10-16T02:17:10;1.47;;;0.63;;
18214;SDS011;9233;51.312;6.512;2022-10-16T02:20:00;3.50;;;0.80;;
18214;SDS011;9233;51.312;6.512;2022-10-16T02:22:47;1.33;;;0.90;;
18214;SDS011;9233;51.312;6.512;2022-10-16T02:25:35;0.87;;;0.53;;
18214;SDS011;9233;51.312;6.512;2022-10-16T02:28:24;1.97;;;0.87;;
18214;SDS011;9233;51.312;6.512;2022-10-16T02:31:15;3.93;;;0.80;;
18214;SDS011;9233;51.312;6.512;2022-10-16T02:34:04;1.60;;;0.43;;
18214;SDS011;9233;51.312;6.512;2022-10-16T02:36:54;2.17;;;0.70;;
18214;SDS011;9233;51.312;6.512;2022-10-16T02:39:41;1.70;;;0.50;;
18214;SDS011;9233;51.312;6.512;2022-10-16T02:42:28;1.07;;;0.70;;
18214;SDS011;9233;51.312;6.512;2022-10-16T02:45:16;3.47;;;0.60;;
18214;SDS011;9233;51.312;6.512;2022-10-16T02:48:02;1.63;;;0.53;;
18214;SDS011;9233;51.312;6.512;2022-10-16T02:50:49;1.43;;;0.70;;
18214;SDS011;9233;51.312;6.512;2022-10-16T02:53:37;0.73;;;0.53;;
18214;SDS011;9233;51.312;6.512;2022-10-16T02:56:24;2.87;;;0.50;;
18214;SDS011;9233;51.312;6.512;2022-10-16T02:59:10;2.10;;;0.60;;
18214;SDS011;9233;51.312;6.512;2022-10-16T03:01:57;3.40;;;0.70;;
18214;SDS011;9233;51.312;6.512;2022-10-16T03:04:43;1.53;;;0.50;;
18214;SDS011;9233;51.312;6.512;2022-10-16T03:07:30;2.40;;;0.53;;
18214;SDS011;9233;51.312;6.512;2022-10-16T03:10:18;2.27;;;0.47;;
18214;SDS011;9233;51.312;6.512;2022-10-16T03:13:04;2.37;;;0.40;;
18214;SDS011;9233;51.312;6.512;2022-10-16T03:15:51;1.17;;;0.57;;
18214;SDS011;9233;51.312;6.512;2022-10-16T03:18:37;0.83;;;0.40;;
18214;SDS011;9233;51.312;6.512;2022-10-16T03:21:24;1.27;;;0.60;;
18214;SDS011;9233;51.312;6.512;2022-10-16T03:24:11;0.70;;;0.50;;
18214;SDS011;9233;51.312;6.512;2022-10-16T03:26:59;2.80;;;0.63;;
18214;SDS011;9233;51.312;6.512;2022-10-16T03:29:45;3.33;;;0.60;;
18214;SDS011;9233;51.312;6.512;2022-10-16T03:32:32;2.77;;;0.60;;
18214;SDS011;9233;51.312;6.512;2022-10-16T03:35:18;3.53;;;0.67;;
18214;SDS011;9233;51.312;6.512;2022-10-16T03:38:05;1.17;;;0.63;;
18214;SDS011;9233;51.312;6.512;2022-10-16T03:40:52;0.73;;;0.60;;
18214;SDS011;9233;51.312;6.512;2022-10-16T03:43:40;1.70;;;0.50;;
18214;SDS011;9233;51.312;6.512;2022-10-16T03:46:26;1.80;;;0.60;;
18214;SDS011;9233;51.312;6.512;2022-10-16T03:49:13;11.10;;;0.93;;
18214;SDS011;9233;51.312;6.512;2022-10-16T03:52:00;1.03;;;0.50;;
18214;SDS011;9233;51.312;6.512;2022-10-16T03:54:46;0.40;;;0.40;;
18214;SDS011;9233;51.312;6.512;2022-10-16T03:57:33;1.97;;;0.60;;
18214;SDS011;9233;51.312;6.512;2022-10-16T04:00:21;0.90;;;0.50;;
18214;SDS011;9233;51.312;6.512;2022-10-16T04:03:07;1.60;;;0.50;;
18214;SDS011;9233;51.312;6.512;2022-10-16T04:05:54;1.07;;;0.50;;
18214;SDS011;9233;51.312;6.512;2022-10-16T04:08:42;3.90;;;0.73;;
18214;SDS011;9233;51.312;6.512;2022-10-16T04:11:28;0.83;;;0.47;;
18214;SDS011;9233;51.312;6.512;2022-10-16T04:14:15;2.50;;;0.50;;
18214;SDS011;9233;51.312;6.512;2022-10-16T04:17:03;1.00;;;0.50;;
18214;SDS011;9233;51.312;6.512;2022-10-16T04:19:49;2.33;;;0.50;;
18214;SDS011;9233;51.312;6.512;2022-10-16T04:22:36;1.77;;;0.47;;
18214;SDS011;9233;51.312;6.512;2022-10-16T04:25:22;1.37;;;0.50;;
18214;SDS011;9233;51.312;6.512;2022-10-16T04:28:09;3.60;;;0.60;;
18214;SDS011;9233;51.312;6.512;2022-10-16T04:30:56;2.47;;;0.60;;
18214;SDS011;9233;51.312;6.512;2022-10-16T04:33:44;1.43;;;0.50;;
18214;SDS011;9233;51.312;6.512;2022-10-16T04:36:30;2.70;;;0.80;;
18214;SDS011;9233;51.312;6.512;2022-10-16T04:39:17;1.10;;;0.40;;
18214;SDS011;9233;51.312;6.512;2022-10-16T04:42:03;2.83;;;0.50;;
18214;SDS011;9233;51.312;6.512;2022-10-16T04:44:50;0.80;;;0.50;;
18214;SDS011;9233;51.312;6.512;2022-10-16T04:47:36;1.87;;;0.50;;
18214;SDS011;9233;51.312;6.512;2022-10-16T04:50:24;2.23;;;0.50;;
18214;SDS011;9233;51.312;6.512;2022-10-16T04:53:23;3.23;;;0.50;;
18214;SDS011;9233;51.312;6.512;2022-10-16T04:56:10;2.13;;;0.60;;
18214;SDS011;9233;51.312;6.512;2022-10-16T04:58:56;0.43;;;0.40;;
18214;SDS011;9233;51.312;6.512;2022-10-16T05:01:43;0.70;;;0.40;;
18214;SDS011;9233;51.312;6.512;2022-10-16T05:04:30;0.60;;;0.43;;
18214;SDS011;9233;51.312;6.512;2022-10-16T05:07:18;5.63;;;0.77;;
18214;SDS011;9233;51.312;6.512;2022-10-16T05:10:05;2.00;;;0.50;;
18214;SDS011;9233;51.312;6.512;2022-10-16T05:12:51;0.70;;;0.37;;
18214;SDS011;9233;51.312;6.512;2022-10-16T05:15:38;1.43;;;0.50;;
18214;SDS011;9233;51.312;6.512;2022-10-16T05:18:25;0.77;;;0.50;;
18214;SDS011;9233;51.312;6.512;2022-10-16T05:21:11;0.60;;;0.50;;
18214;SDS011;9233;51.312;6.512;2022-10-16T05:23:59;0.73;;;0.40;;
18214;SDS011;9233;51.312;6.512;2022-10-16T05:26:46;3.63;;;0.60;;
18214;SDS011;9233;51.312;6.512;2022-10-16T05:29:32;0.70;;;0.40;;
18214;SDS011;9233;51.312;6.512;2022-10-16T05:32:20;0.57;;;0.43;;
18214;SDS011;9233;51.312;6.512;2022-10-16T05:35:07;0.90;;;0.60;;
18214;SDS011;9233;51.312;6.512;2022-10-16T05:37:53;1.57;;;0.50;;
18214;SDS011;9233;51.312;6.512;2022-10-16T05:40:41;2.73;;;0.50;;
18214;SDS011;9233;51.312;6.512;2022-10-16T05:43:28;2.53;;;0.60;;
18214;SDS011;9233;51.312;6.512;2022-10-16T05:46:15;0.67;;;0.50;;
18214;SDS011;9233;51.312;6.512;2022-10-16T05:49:02;3.10;;;0.50;;
18214;SDS011;9233;51.312;6.512;2022-10-16T05:51:49;1.90;;;0.80;;
18214;SDS011;9233;51.312;6.512;2022-10-16T05:54:36;2.10;;;0.60;;
18214;SDS011;9233;51.312;6.512;2022-10-16T05:57:24;2.73;;;1.03;;
18214;SDS011;9233;51.312;6.512;2022-10-16T06:00:10;1.60;;;0.80;;
18214;SDS011;9233;51.312;6.512;2022-10-16T06:03:00;1.10;;;0.87;;
18214;SDS011;9233;51.312;6.512;2022-10-16T06:05:47;1.73;;;0.80;;
18214;SDS011;9233;51.312;6.512;2022-10-16T06:08:33;0.73;;;0.70;;
18214;SDS011;9233;51.312;6.512;2022-10-16T06:11:21;2.33;;;0.87;;
18214;SDS011;9233;51.312;6.512;2022-10-16T06:14:10;0.87;;;0.67;;
18214;SDS011;9233;51.312;6.512;2022-10-16T06:16:57;3.27;;;1.17;;
18214;SDS011;9233;51.312;6.512;2022-10-16T06:19:43;1.77;;;0.90;;
18214;SDS011;9233;51.312;6.512;2022-10-16T06:22:30;1.37;;;0.80;;
18214;SDS011;9233;51.312;6.512;2022-10-16T06:25:17;1.90;;;0.80;;
18214;SDS011;9233;51.312;6.512;2022-10-16T06:28:03;1.67;;;0.80;;
18214;SDS011;9233;51.312;6.512;2022-10-16T06:30:59;0.83;;;0.53;;
18214;SDS011;9233;51.312;6.512;2022-10-16T06:33:49;1.50;;;0.60;;
18214;SDS011;9233;51.312;6.512;2022-10-16T06:36:36;2.00;;;0.80;;
18214;SDS011;9233;51.312;6.512;2022-10-16T06:39:23;0.87;;;0.80;;
18214;SDS011;9233;51.312;6.512;2022-10-16T06:42:10;2.23;;;0.60;;
18214;SDS011;9233;51.312;6.512;2022-10-16T06:44:56;1.10;;;0.80;;
18214;SDS011;9233;51.312;6.512;2022-10-16T06:47:44;1.70;;;0.67;;
18214;SDS011;9233;51.312;6.512;2022-10-16T06:50:30;1.67;;;0.60;;
18214;SDS011;9233;51.312;6.512;2022-10-16T06:53:17;1.60;;;0.90;;
18214;SDS011;9233;51.312;6.512;2022-10-16T06:56:07;0.73;;;0.53;;
18214;SDS011;9233;51.312;6.512;2022-10-16T06:58:54;1.93;;;0.97;;
18214;SDS011;9233;51.312;6.512;2022-10-16T07:01:41;1.17;;;0.60;;
18214;SDS011;9233;51.312;6.512;2022-10-16T07:04:29;0.83;;;0.83;;
18214;SDS011;9233;51.312;6.512;2022-10-16T07:07:15;2.20;;;0.80;;
18214;SDS011;9233;51.312;6.512;2022-10-16T07:10:02;2.37;;;0.97;;
18214;SDS011;9233;51.312;6.512;2022-10-16T07:12:49;2.53;;;0.90;;
18214;SDS011;9233;51.312;6.512;2022-10-16T07:15:36;2.80;;;1.10;;
18214;SDS011;9233;51.312;6.512;2022-10-16T07:18:23;0.83;;;0.70;;
18214;SDS011;9233;51.312;6.512;2022-10-16T07:21:13;2.67;;;0.77;;
18214;SDS011;9233;51.312;6.512;2022-10-16T07:24:01;4.90;;;1.20;;
18214;SDS011;9233;51.312;6.512;2022-10-16T07:26:49;3.87;;;0.97;;
18214;SDS011;9233;51.312;6.512;2022-10-16T07:29:41;2.57;;;0.90;;
18214;SDS011;9233;51.312;6.512;2022-10-16T07:32:31;1.67;;;1.17;;
18214;SDS011;9233;51.312;6.512;2022-10-16T07:35:18;2.27;;;1.00;;
18214;SDS011;9233;51.312;6.512;2022-10-16T07:38:06;2.13;;;1.00;;
18214;SDS011;9233;51.312;6.512;2022-10-16T07:40:56;1.97;;;1.00;;
18214;SDS011;9233;51.312;6.512;2022-10-16T07:43:45;1.60;;;0.90;;
18214;SDS011;9233;51.312;6.512;2022-10-16T07:46:32;1.57;;;0.93;;
18214;SDS011;9233;51.312;6.512;2022-10-16T07:49:21;3.70;;;0.80;;
18214;SDS011;9233;51.312;6.512;2022-10-16T07:52:07;3.80;;;1.20;;
18214;SDS011;9233;51.312;6.512;2022-10-16T07:54:55;3.00;;;0.90;;
18214;SDS011;9233;51.312;6.512;2022-10-16T07:57:42;2.30;;;0.80;;
18214;SDS011;9233;51.312;6.512;2022-10-16T08:00:28;1.30;;;0.87;;
18214;SDS011;9233;51.312;6.512;2022-10-16T08:03:15;1.57;;;1.00;;
18214;SDS011;9233;51.312;6.512;2022-10-16T08:06:01;2.10;;;1.00;;
18214;SDS011;9233;51.312;6.512;2022-10-16T08:08:48;0.70;;;0.70;;
18214;SDS011;9233;51.312;6.512;2022-10-16T08:11:37;1.43;;;0.63;;
18214;SDS011;9233;51.312;6.512;2022-10-16T08:14:23;3.27;;;0.93;;
18214;SDS011;9233;51.312;6.512;2022-10-16T08:17:13;1.13;;;0.77;;
18214;SDS011;9233;51.312;6.512;2022-10-16T08:20:01;1.13;;;0.63;;
18214;SDS011;9233;51.312;6.512;2022-10-16T08:22:48;1.40;;;0.90;;
18214;SDS011;9233;51.312;6.512;2022-10-16T08:25:35;4.17;;;0.80;;
18214;SDS011;9233;51.312;6.512;2022-10-16T08:28:23;1.40;;;0.83;;
18214;SDS011;9233;51.312;6.512;2022-10-16T08:31:11;1.53;;;0.83;;
18214;SDS011;9233;51.312;6.512;2022-10-16T08:33:58;1.13;;;0.60;;
18214;SDS011;9233;51.312;6.512;2022-10-16T08:36:45;0.70;;;0.70;;
18214;SDS011;9233;51.312;6.512;2022-10-16T08:39:31;2.27;;;0.70;;
18214;SDS011;9233;51.312;6.512;2022-10-16T08:42:21;1.67;;;0.60;;
18214;SDS011;9233;51.312;6.512;2022-10-16T08:45:21;0.83;;;0.80;;
18214;SDS011;9233;51.312;6.512;2022-10-16T08:48:17;2.10;;;0.80;;
18214;SDS011;9233;51.312;6.512;2022-10-16T08:51:08;3.17;;;0.80;;
18214;SDS011;9233;51.312;6.512;2022-10-16T08:53:56;2.30;;;0.70;;
18214;SDS011;9233;51.312;6.512;2022-10-16T08:56:44;1.10;;;0.70;;
18214;SDS011;9233;51.312;6.512;2022-10-16T08:59:30;3.37;;;0.73;;
18214;SDS011;9233;51.312;6.512;2022-10-16T09:02:23;2.13;;;0.63;;
18214;SDS011;9233;51.312;6.512;2022-10-16T09:05:17;0.83;;;0.50;;
18214;SDS011;9233;51.312;6.512;2022-10-16T09:08:10;3.67;;;0.60;;
18214;SDS011;9233;51.312;6.512;2022-10-16T09:11:03;3.73;;;0.70;;
18214;SDS011;9233;51.312;6.512;2022-10-16T09:13:57;1.83;;;0.60;;
18214;SDS011;9233;51.312;6.512;2022-10-16T09:16:48;1.80;;;0.57;;
18214;SDS011;9233;51.312;6.512;2022-10-16T09:19:40;1.97;;;0.70;;
18214;SDS011;9233;51.312;6.512;2022-10-16T09:22:30;1.27;;;0.50;;
18214;SDS011;9233;51.312;6.512;2022-10-16T09:25:19;3.37;;;0.70;;
18214;SDS011;9233;51.312;6.512;2022-10-16T09:28:07;1.40;;;0.60;;
18214;SDS011;9233;51.312;6.512;2022-10-16T09:30:54;4.00;;;0.63;;
18214;SDS011;9233;51.312;6.512;2022-10-16T09:33:41;1.47;;;0.50;;
18214;SDS011;9233;51.312;6.512;2022-10-16T09:36:29;0.93;;;0.60;;
18214;SDS011;9233;51.312;6.512;2022-10-16T09:39:21;1.33;;;0.60;;
18214;SDS011;9233;51.312;6.512;2022-10-16T09:42:07;2.20;;;0.50;;
18214;SDS011;9233;51.312;6.512;2022-10-16T09:44:55;1.30;;;0.60;;
18214;SDS011;9233;51.312;6.512;2022-10-16T09:47:42;1.77;;;0.60;;
18214;SDS011;9233;51.312;6.512;2022-10-16T09:50:30;1.83;;;0.83;;
18214;SDS011;9233;51.312;6.512;2022-10-16T09:53:19;1.90;;;0.50;;
18214;SDS011;9233;51.312;6.512;2022-10-16T09:56:09;0.97;;;0.50;;
18214;SDS011;9233;51.312;6.512;2022-10-16T09:58:59;1.10;;;0.63;;
18214;SDS011;9233;51.312;6.512;2022-10-16T10:01:48;3.33;;;0.70;;
18214;SDS011;9233;51.312;6.512;2022-10-16T10:04:40;2.27;;;0.60;;
18214;SDS011;9233;51.312;6.512;2022-10-16T10:07:30;2.50;;;0.53;;
18214;SDS011;9233;51.312;6.512;2022-10-16T10:10:21;0.80;;;0.40;;
18214;SDS011;9233;51.312;6.512;2022-10-16T10:13:16;4.37;;;0.60;;
18214;SDS011;9233;51.312;6.512;2022-10-16T10:16:03;1.83;;;0.60;;
18214;SDS011;9233;51.312;6.512;2022-10-16T10:18:57;1.63;;;0.60;;
18214;SDS011;9233;51.312;6.512;2022-10-16T10:21:44;4.43;;;0.83;;
18214;SDS011;9233;51.312;6.512;2022-10-16T10:24:31;1.67;;;0.50;;
18214;SDS011;9233;51.312;6.512;2022-10-16T10:27:19;1.97;;;0.70;;
18214;SDS011;9233;51.312;6.512;2022-10-16T10:30:06;1.00;;;0.40;;
18214;SDS011;9233;51.312;6.512;2022-10-16T10:33:03;2.13;;;0.40;;
18214;SDS011;9233;51.312;6.512;2022-10-16T10:36:10;1.40;;;0.50;;
18214;SDS011;9233;51.312;6.512;2022-10-16T10:39:01;0.60;;;0.50;;
18214;SDS011;9233;51.312;6.512;2022-10-16T10:42:02;2.33;;;0.60;;
18214;SDS011;9233;51.312;6.512;2022-10-16T10:45:01;2.87;;;0.70;;
18214;SDS011;9233;51.312;6.512;2022-10-16T10:48:06;3.70;;;0.80;;
18214;SDS011;9233;51.312;6.512;2022-10-16T10:51:01;0.97;;;0.60;;
18214;SDS011;9233;51.312;6.512;2022-10-16T10:53:53;3.03;;;0.47;;
18214;SDS011;9233;51.312;6.512;2022-10-16T10:56:44;1.30;;;0.40;;
18214;SDS011;9233;51.312;6.512;2022-10-16T10:59:49;2.17;;;0.40;;
18214;SDS011;9233;51.312;6.512;2022-10-16T11:02:48;2.27;;;0.60;;
18214;SDS011;9233;51.312;6.512;2022-10-16T11:05:40;1.43;;;0.57;;
18214;SDS011;9233;51.312;6.512;2022-10-16T11:08:28;4.23;;;0.60;;
18214;SDS011;9233;51.312;6.512;2022-10-16T11:11:20;1.27;;;0.60;;
18214;SDS011;9233;51.312;6.512;2022-10-16T11:14:12;0.30;;;0.30;;
18214;SDS011;9233;51.312;6.512;2022-10-16T11:17:04;0.83;;;0.40;;
18214;SDS011;9233;51.312;6.512;2022-10-16T11:19:54;1.80;;;0.60;;
18214;SDS011;9233;51.312;6.512;2022-10-16T11:22:44;0.87;;;0.50;;
18214;SDS011;9233;51.312;6.512;2022-10-16T11:25:34;1.07;;;0.50;;
18214;SDS011;9233;51.312;6.512;2022-10-16T11:28:23;0.67;;;0.37;;
18214;SDS011;9233;51.312;6.512;2022-10-16T11:31:13;0.40;;;0.40;;
18214;SDS011;9233;51.312;6.512;2022-10-16T11:34:04;1.67;;;0.70;;
18214;SDS011;9233;51.312;6.512;2022-10-16T11:36:53;2.20;;;0.50;;
18214;SDS011;9233;51.312;6.512;2022-10-16T11:39:43;2.17;;;0.83;;
18214;SDS011;9233;51.312;6.512;2022-10-16T11:42:32;2.33;;;0.63;;
18214;SDS011;9233;51.312;6.512;2022-10-16T11:45:24;1.63;;;0.43;;
18214;SDS011;9233;51.312;6.512;2022-10-16T11:48:18;1.40;;;0.40;;
18214;SDS011;9233;51.312;6.512;2022-10-16T11:51:14;2.00;;;0.83;;
18214;SDS011;9233;51.312;6.512;2022-10-16T11:54:08;2.20;;;0.50;;
18214;SDS011;9233;51.312;6.512;2022-10-16T11:57:08;1.13;;;0.37;;
18214;SDS011;9233;51.312;6.512;2022-10-16T11:59:58;3.50;;;0.40;;
18214;SDS011;9233;51.312;6.512;2022-10-16T12:02:59;1.47;;;0.50;;
18214;SDS011;9233;51.312;6.512;2022-10-16T12:06:02;0.77;;;0.40;;
18214;SDS011;9233;51.312;6.512;2022-10-16T12:08:54;1.87;;;0.43;;
18214;SDS011;9233;51.312;6.512;2022-10-16T12:11:41;0.60;;;0.40;;
18214;SDS011;9233;51.312;6.512;2022-10-16T12:14:35;0.60;;;0.40;;
18214;SDS011;9233;51.312;6.512;2022-10-16T12:17:26;1.70;;;0.30;;
18214;SDS011;9233;51.312;6.512;2022-10-16T12:20:19;2.17;;;0.40;;
18214;SDS011;9233;51.312;6.512;2022-10-16T12:23:16;2.50;;;0.73;;
18214;SDS011;9233;51.312;6.512;2022-10-16T12:26:08;1.10;;;0.40;;
18214;SDS011;9233;51.312;6.512;2022-10-16T12:28:57;2.93;;;0.70;;
18214;SDS011;9233;51.312;6.512;2022-10-16T12:31:58;1.50;;;0.67;;
18214;SDS011;9233;51.312;6.512;2022-10-16T12:34:44;1.70;;;0.60;;
18214;SDS011;9233;51.312;6.512;2022-10-16T12:37:32;2.70;;;0.53;;
18214;SDS011;9233;51.312;6.512;2022-10-16T12:40:24;1.90;;;0.70;;
18214;SDS011;9233;51.312;6.512;2022-10-16T12:43:23;2.07;;;0.63;;
18214;SDS011;9233;51.312;6.512;2022-10-16T12:46:22;0.70;;;0.50;;
18214;SDS011;9233;51.312;6.512;2022-10-16T12:49:28;1.13;;;0.33;;
18214;SDS011;9233;51.312;6.512;2022-10-16T12:52:24;1.80;;;0.40;;
18214;SDS011;9233;51.312;6.512;2022-10-16T12:55:13;0.50;;;0.50;;
18214;SDS011;9233;51.312;6.512;2022-10-16T12:58:05;3.07;;;0.50;;
18214;SDS011;9233;51.312;6.512;2022-10-16T13:01:00;2.30;;;0.50;;
18214;SDS011;9233;51.312;6.512;2022-10-16T13:04:00;1.67;;;0.43;;
18214;SDS011;9233;51.312;6.512;2022-10-16T13:06:53;0.87;;;0.40;;
18214;SDS011;9233;51.312;6.512;2022-10-16T13:09:48;1.47;;;0.47;;
18214;SDS011;9233;51.312;6.512;2022-10-16T13:12:52;4.47;;;0.40;;
18214;SDS011;9233;51.312;6.512;2022-10-16T13:16:00;2.40;;;0.67;;
18214;SDS011;9233;51.312;6.512;2022-10-16T13:18:56;0.30;;;0.30;;
18214;SDS011;9233;51.312;6.512;2022-10-16T13:21:51;1.10;;;0.90;;
18214;SDS011;9233;51.312;6.512;2022-10-16T13:24:45;1.30;;;0.70;;
18214;SDS011;9233;51.312;6.512;2022-10-16T13:27:37;1.37;;;0.50;;
18214;SDS011;9233;51.312;6.512;2022-10-16T13:30:30;3.23;;;0.60;;
18214;SDS011;9233;51.312;6.512;2022-10-16T13:33:24;2.23;;;0.50;;
18214;SDS011;9233;51.312;6.512;2022-10-16T13:36:19;3.47;;;0.40;;
18214;SDS011;9233;51.312;6.512;2022-10-16T13:39:10;2.83;;;0.60;;
18214;SDS011;9233;51.312;6.512;2022-10-16T13:42:02;4.00;;;0.83;;
18214;SDS011;9233;51.312;6.512;2022-10-16T13:44:51;0.67;;;0.40;;
18214;SDS011;9233;51.312;6.512;2022-10-16T13:47:39;1.97;;;0.60;;
18214;SDS011;9233;51.312;6.512;2022-10-16T13:50:27;0.97;;;0.50;;
18214;SDS011;9233;51.312;6.512;2022-10-16T13:53:14;2.10;;;0.33;;
18214;SDS011;9233;51.312;6.512;2022-10-16T13:56:02;1.23;;;0.63;;
18214;SDS011;9233;51.312;6.512;2022-10-16T13:58:57;1.53;;;0.50;;
18214;SDS011;9233;51.312;6.512;2022-10-16T14:01:44;0.53;;;0.47;;
18214;SDS011;9233;51.312;6.512;2022-10-16T14:04:32;1.47;;;0.47;;
18214;SDS011;9233;51.312;6.512;2022-10-16T14:07:22;0.30;;;0.30;;
18214;SDS011;9233;51.312;6.512;2022-10-16T14:10:18;2.17;;;1.00;;
18214;SDS011;9233;51.312;6.512;2022-10-16T14:13:07;0.77;;;0.50;;
18214;SDS011;9233;51.312;6.512;2022-10-16T14:15:54;3.23;;;0.40;;
18214;SDS011;9233;51.312;6.512;2022-10-16T14:18:45;0.80;;;0.30;;
18214;SDS011;9233;51.312;6.512;2022-10-16T14:21:32;1.97;;;0.40;;
18214;SDS011;9233;51.312;6.512;2022-10-16T14:24:24;2.27;;;0.30;;
18214;SDS011;9233;51.312;6.512;2022-10-16T14:27:20;0.60;;;0.40;;
18214;SDS011;9233;51.312;6.512;2022-10-16T14:30:16;2.43;;;0.37;;
18214;SDS011;9233;51.312;6.512;2022-10-16T14:33:04;2.20;;;0.40;;
18214;SDS011;9233;51.312;6.512;2022-10-16T14:36:02;1.03;;;0.40;;
18214;SDS011;9233;51.312;6.512;2022-10-16T14:38:54;1.83;;;0.33;;
18214;SDS011;9233;51.312;6.512;2022-10-16T14:41:46;4.23;;;1.30;;
18214;SDS011;9233;51.312;6.512;2022-10-16T14:44:34;2.83;;;0.60;;
18214;SDS011;9233;51.312;6.512;2022-10-16T14:47:22;1.20;;;0.43;;
18214;SDS011;9233;51.312;6.512;2022-10-16T14:50:11;3.47;;;0.50;;
18214;SDS011;9233;51.312;6.512;2022-10-16T14:52:58;2.80;;;0.40;;
18214;SDS011;9233;51.312;6.512;2022-10-16T14:55:44;0.90;;;0.27;;
18214;SDS011;9233;51.312;6.512;2022-10-16T14:58:32;0.70;;;0.23;;
18214;SDS011;9233;51.312;6.512;2022-10-16T15:01:19;1.83;;;0.30;;
18214;SDS011;9233;51.312;6.512;2022-10-16T15:04:07;0.80;;;0.60;;
18214;SDS011;9233;51.312;6.512;2022-10-16T15:06:53;1.63;;;0.37;;
18214;SDS011;9233;51.312;6.512;2022-10-16T15:09:40;0.67;;;0.43;;
18214;SDS011;9233;51.312;6.512;2022-10-16T15:12:26;3.90;;;0.40;;
18214;SDS011;9233;51.312;6.512;2022-10-16T15:15:30;0.65;;;0.25;;
18214;SDS011;9233;51.312;6.512;2022-10-16T15:18:20;0.87;;;0.40;;
18214;SDS011;9233;51.312;6.512;2022-10-16T15:21:07;1.00;;;0.60;;
18214;SDS011;9233;51.312;6.512;2022-10-16T15:23:54;2.50;;;1.63;;
18214;SDS011;9233;51.312;6.512;2022-10-16T15:26:41;3.10;;;1.50;;
18214;SDS011;9233;51.312;6.512;2022-10-16T15:29:28;2.67;;;1.97;;
18214;SDS011;9233;51.312;6.512;2022-10-16T15:32:16;2.03;;;1.70;;
18214;SDS011;9233;51.312;6.512;2022-10-16T15:35:03;2.27;;;1.40;;
18214;SDS011;9233;51.312;6.512;2022-10-16T15:37:49;2.43;;;1.10;;
18214;SDS011;9233;51.312;6.512;2022-10-16T15:40:36;4.77;;;1.80;;
18214;SDS011;9233;51.312;6.512;2022-10-16T15:43:23;7.03;;;3.27;;
18214;SDS011;9233;51.312;6.512;2022-10-16T15:46:11;4.40;;;3.50;;
18214;SDS011;9233;51.312;6.512;2022-10-16T15:49:00;7.23;;;4.57;;
18214;SDS011;9233;51.312;6.512;2022-10-16T15:51:47;6.83;;;3.83;;
18214;SDS011;9233;51.312;6.512;2022-10-16T15:54:34;6.50;;;3.60;;
18214;SDS011;9233;51.312;6.512;2022-10-16T15:57:20;7.63;;;4.37;;
18214;SDS011;9233;51.312;6.512;2022-10-16T16:00:07;4.90;;;3.30;;
18214;SDS011;9233;51.312;6.512;2022-10-16T16:02:57;6.17;;;3.80;;
18214;SDS011;9233;51.312;6.512;2022-10-16T16:05:45;5.20;;;3.80;;
18214;SDS011;9233;51.312;6.512;2022-10-16T16:08:32;6.17;;;2.90;;
18214;SDS011;9233;51.312;6.512;2022-10-16T16:11:20;5.97;;;2.27;;
18214;SDS011;9233;51.312;6.512;2022-10-16T16:14:08;4.13;;;2.53;;
18214;SDS011;9233;51.312;6.512;2022-10-16T16:16:56;4.93;;;2.30;;
18214;SDS011;9233;51.312;6.512;2022-10-16T16:19:43;3.90;;;2.20;;
18214;SDS011;9233;51.312;6.512;2022-10-16T16:22:31;7.20;;;2.53;;
18214;SDS011;9233;51.312;6.512;2022-10-16T16:25:18;6.47;;;2.73;;
18214;SDS011;9233;51.312;6.512;2022-10-16T16:28:04;5.80;;;2.57;;
18214;SDS011;9233;51.312;6.512;2022-10-16T16:30:52;3.60;;;2.20;;
18214;SDS011;9233;51.312;6.512;2022-10-16T16:33:38;8.13;;;2.90;;
18214;SDS011;9233;51.312;6.512;2022-10-16T16:36:25;6.10;;;2.83;;
18214;SDS011;9233;51.312;6.512;2022-10-16T16:39:13;3.70;;;2.33;;
18214;SDS011;9233;51.312;6.512;2022-10-16T16:41:59;5.83;;;2.93;;
18214;SDS011;9233;51.312;6.512;2022-10-16T16:44:48;5.50;;;2.70;;
18214;SDS011;9233;51.312;6.512;2022-10-16T16:47:34;4.87;;;2.43;;
18214;SDS011;9233;51.312;6.512;2022-10-16T16:50:21;3.67;;;3.00;;
18214;SDS011;9233;51.312;6.512;2022-10-16T16:53:07;7.63;;;3.23;;
18214;SDS011;9233;51.312;6.512;2022-10-16T16:55:55;4.40;;;2.70;;
18214;SDS011;9233;51.312;6.512;2022-10-16T16:58:44;9.97;;;3.13;;
18214;SDS011;9233;51.312;6.512;2022-10-16T17:01:31;3.33;;;2.27;;
18214;SDS011;9233;51.312;6.512;2022-10-16T17:04:17;3.93;;;2.27;;
18214;SDS011;9233;51.312;6.512;2022-10-16T17:07:04;4.87;;;2.63;;
18214;SDS011;9233;51.312;6.512;2022-10-16T17:09:50;3.93;;;2.13;;
18214;SDS011;9233;51.312;6.512;2022-10-16T17:12:38;5.00;;;2.63;;
18214;SDS011;9233;51.312;6.512;2022-10-16T17:15:25;6.73;;;2.60;;